KRWF/RWF METAR and TAF weather

Enter ICAO airport designator
Station Type Date Time Source
KRWF METAR 2022/11/26 09:53 UTC NOAA

KRWF 260953Z AUTO 19012KT 10SM CLR 03/M04 A2981 RMK AO2 SLP098 T00331039


Station Type Date Time Source
KRWF Decoded METAR 2022/11/26 09:53 UTC NOAA

REDWOOD FALLS MUNICIPAL, MN, United States (KRWF) 44-33N 95-05W 311M
Nov 26, 2022 - 04:53 AM EST / 2022.11.26 0953 UTC
Wind: from the S (190 degrees) at 14 MPH (12 KT):0
Visibility: 10 mile(s):0
Sky conditions: clear
Temperature: 37.9 F (3.3 C)
Dew Point: 25.0 F (-3.9 C)
Relative Humidity: 59%
Pressure (altimeter): 29.81 in. Hg (1009 hPa)
ob: KRWF 260953Z AUTO 19012KT 10SM CLR 03/M04 A2981 RMK AO2 SLP098 T00331039
cycle: 10

Station Type Date Time Source
KRWF TAF 2022/11/26 06:22 UTC NOAA

TAF KRWF 260520Z 2606/2706 20012KT P6SM FEW250
FM261900 32012G18KT P6SM FEW250
FM270400 33011KT P6SM BKN100

Example: see airport list